sensor_id;sensor_type;location;lat;lon;timestamp;temperature;humidity
37240;DHT22;23130;48.760;9.178;2023-07-31T00:00:29;15.60;99.90
37240;DHT22;23130;48.760;9.178;2023-07-31T00:02:58;15.60;99.90
37240;DHT22;23130;48.760;9.178;2023-07-31T00:05:25;15.50;99.90
37240;DHT22;23130;48.760;9.178;2023-07-31T00:07:50;15.50;99.90
37240;DHT22;23130;48.760;9.178;2023-07-31T00:10:17;15.50;99.90
37240;DHT22;23130;48.760;9.178;2023-07-31T00:12:44;15.40;99.90
37240;DHT22;23130;48.760;9.178;2023-07-31T00:15:10;15.40;99.90
37240;DHT22;23130;48.760;9.178;2023-07-31T00:17:36;15.50;99.90
37240;DHT22;23130;48.760;9.178;2023-07-31T00:20:02;15.40;99.90
37240;DHT22;23130;48.760;9.178;2023-07-31T00:22:29;15.30;99.90
37240;DHT22;23130;48.760;9.178;2023-07-31T00:24:56;15.30;99.90
37240;DHT22;23130;48.760;9.178;2023-07-31T00:27:21;15.20;99.90
37240;DHT22;23130;48.760;9.178;2023-07-31T00:29:47;15.10;99.90
37240;DHT22;23130;48.760;9.178;2023-07-31T00:32:14;15.10;99.90
37240;DHT22;23130;48.760;9.178;2023-07-31T00:34:40;15.10;99.90
37240;DHT22;23130;48.760;9.178;2023-07-31T00:37:05;15.00;99.90
37240;DHT22;23130;48.760;9.178;2023-07-31T00:39:33;15.00;99.90
37240;DHT22;23130;48.760;9.178;2023-07-31T00:41:59;15.00;99.90
37240;DHT22;23130;48.760;9.178;2023-07-31T00:44:25;15.00;99.90
37240;DHT22;23130;48.760;9.178;2023-07-31T00:46:51;15.00;99.90
37240;DHT22;23130;48.760;9.178;2023-07-31T00:49:17;15.00;99.90
37240;DHT22;23130;48.760;9.178;2023-07-31T00:51:44;15.00;99.90
37240;DHT22;23130;48.760;9.178;2023-07-31T00:54:11;15.00;99.90
37240;DHT22;23130;48.760;9.178;2023-07-31T00:56:38;15.00;99.90
37240;DHT22;23130;48.760;9.178;2023-07-31T00:59:05;14.90;99.90
37240;DHT22;23130;48.760;9.178;2023-07-31T01:01:31;14.90;99.90
37240;DHT22;23130;48.760;9.178;2023-07-31T01:03:58;14.80;99.90
37240;DHT22;23130;48.760;9.178;2023-07-31T01:06:40;14.70;99.90
37240;DHT22;23130;48.760;9.178;2023-07-31T01:12:00;14.70;99.90
37240;DHT22;23130;48.760;9.178;2023-07-31T01:14:28;14.70;99.90
37240;DHT22;23130;48.760;9.178;2023-07-31T01:16:55;14.70;99.90
37240;DHT22;23130;48.760;9.178;2023-07-31T01:19:24;14.70;99.90
37240;DHT22;23130;48.760;9.178;2023-07-31T01:28:03;14.60;99.90
37240;DHT22;23130;48.760;9.178;2023-07-31T01:30:32;14.50;99.90
37240;DHT22;23130;48.760;9.178;2023-07-31T01:33:01;14.50;99.90
37240;DHT22;23130;48.760;9.178;2023-07-31T01:35:33;14.50;99.90
37240;DHT22;23130;48.760;9.178;2023-07-31T01:38:01;14.50;99.90
37240;DHT22;23130;48.760;9.178;2023-07-31T01:40:26;14.60;99.90
37240;DHT22;23130;48.760;9.178;2023-07-31T01:42:52;14.70;99.90
37240;DHT22;23130;48.760;9.178;2023-07-31T01:45:17;14.60;99.90
37240;DHT22;23130;48.760;9.178;2023-07-31T01:47:43;14.60;99.90
37240;DHT22;23130;48.760;9.178;2023-07-31T01:50:09;14.60;99.90
37240;DHT22;23130;48.760;9.178;2023-07-31T01:52:36;14.60;99.90
37240;DHT22;23130;48.760;9.178;2023-07-31T01:55:01;14.60;99.90
37240;DHT22;23130;48.760;9.178;2023-07-31T01:57:28;14.60;99.90
37240;DHT22;23130;48.760;9.178;2023-07-31T01:59:55;14.60;99.90
37240;DHT22;23130;48.760;9.178;2023-07-31T02:02:21;14.50;99.90
37240;DHT22;23130;48.760;9.178;2023-07-31T02:04:48;14.60;99.90
37240;DHT22;23130;48.760;9.178;2023-07-31T02:07:14;14.60;99.90
37240;DHT22;23130;48.760;9.178;2023-07-31T02:09:40;14.70;99.90
37240;DHT22;23130;48.760;9.178;2023-07-31T02:12:06;14.70;99.90
37240;DHT22;23130;48.760;9.178;2023-07-31T02:14:34;14.70;99.90
37240;DHT22;23130;48.760;9.178;2023-07-31T02:16:59;14.70;99.90
37240;DHT22;23130;48.760;9.178;2023-07-31T02:19:25;14.70;99.90
37240;DHT22;23130;48.760;9.178;2023-07-31T02:21:51;14.70;99.90
37240;DHT22;23130;48.760;9.178;2023-07-31T02:24:16;14.70;99.90
37240;DHT22;23130;48.760;9.178;2023-07-31T02:26:43;14.80;99.90
37240;DHT22;23130;48.760;9.178;2023-07-31T02:29:09;14.80;99.90
37240;DHT22;23130;48.760;9.178;2023-07-31T02:31:34;14.90;99.90
37240;DHT22;23130;48.760;9.178;2023-07-31T02:34:01;14.90;99.90
37240;DHT22;23130;48.760;9.178;2023-07-31T02:36:27;14.90;99.90
37240;DHT22;23130;48.760;9.178;2023-07-31T02:38:53;14.90;99.90
37240;DHT22;23130;48.760;9.178;2023-07-31T02:41:20;14.90;99.90
37240;DHT22;23130;48.760;9.178;2023-07-31T02:43:46;14.90;99.90
37240;DHT22;23130;48.760;9.178;2023-07-31T02:46:13;14.90;99.90
37240;DHT22;23130;48.760;9.178;2023-07-31T02:48:39;14.90;99.90
37240;DHT22;23130;48.760;9.178;2023-07-31T02:51:05;14.90;99.90
37240;DHT22;23130;48.760;9.178;2023-07-31T02:53:32;14.90;99.90
37240;DHT22;23130;48.760;9.178;2023-07-31T02:55:59;14.90;99.90
37240;DHT22;23130;48.760;9.178;2023-07-31T02:58:24;14.80;99.90
37240;DHT22;23130;48.760;9.178;2023-07-31T03:00:51;14.70;99.90
37240;DHT22;23130;48.760;9.178;2023-07-31T03:03:17;14.70;99.90
37240;DHT22;23130;48.760;9.178;2023-07-31T03:05:44;14.70;99.90
37240;DHT22;23130;48.760;9.178;2023-07-31T03:08:09;14.70;99.90
37240;DHT22;23130;48.760;9.178;2023-07-31T03:10:35;14.70;99.90
37240;DHT22;23130;48.760;9.178;2023-07-31T03:13:01;14.70;99.90
37240;DHT22;23130;48.760;9.178;2023-07-31T03:15:28;14.70;99.90
37240;DHT22;23130;48.760;9.178;2023-07-31T03:17:54;14.60;99.90
37240;DHT22;23130;48.760;9.178;2023-07-31T03:20:19;14.60;99.90
37240;DHT22;23130;48.760;9.178;2023-07-31T03:22:45;14.60;99.90
37240;DHT22;23130;48.760;9.178;2023-07-31T03:25:11;14.50;99.90
37240;DHT22;23130;48.760;9.178;2023-07-31T03:27:38;14.50;99.90
37240;DHT22;23130;48.760;9.178;2023-07-31T03:30:03;14.50;99.90
37240;DHT22;23130;48.760;9.178;2023-07-31T03:32:30;14.50;99.90
37240;DHT22;23130;48.760;9.178;2023-07-31T03:34:57;14.50;99.90
37240;DHT22;23130;48.760;9.178;2023-07-31T03:37:23;14.50;99.90
37240;DHT22;23130;48.760;9.178;2023-07-31T03:39:48;14.50;99.90
37240;DHT22;23130;48.760;9.178;2023-07-31T03:42:14;14.50;99.90
37240;DHT22;23130;48.760;9.178;2023-07-31T03:44:40;14.50;99.90
37240;DHT22;23130;48.760;9.178;2023-07-31T03:47:07;14.50;99.90
37240;DHT22;23130;48.760;9.178;2023-07-31T03:49:34;14.40;99.90
37240;DHT22;23130;48.760;9.178;2023-07-31T03:51:59;14.50;99.90
37240;DHT22;23130;48.760;9.178;2023-07-31T03:54:25;14.50;99.90
37240;DHT22;23130;48.760;9.178;2023-07-31T03:56:50;14.60;99.90
37240;DHT22;23130;48.760;9.178;2023-07-31T03:59:17;14.70;99.90
37240;DHT22;23130;48.760;9.178;2023-07-31T04:01:43;14.70;99.90
37240;DHT22;23130;48.760;9.178;2023-07-31T04:04:10;14.70;99.90
37240;DHT22;23130;48.760;9.178;2023-07-31T04:06:36;14.80;99.90
37240;DHT22;23130;48.760;9.178;2023-07-31T04:09:04;14.90;99.90
37240;DHT22;23130;48.760;9.178;2023-07-31T04:11:30;15.00;99.90
37240;DHT22;23130;48.760;9.178;2023-07-31T04:13:56;15.20;99.90
37240;DHT22;23130;48.760;9.178;2023-07-31T04:16:22;15.30;99.90
37240;DHT22;23130;48.760;9.178;2023-07-31T04:18:47;15.40;99.90
37240;DHT22;23130;48.760;9.178;2023-07-31T04:21:13;15.50;99.90
37240;DHT22;23130;48.760;9.178;2023-07-31T04:23:39;15.60;99.90
37240;DHT22;23130;48.760;9.178;2023-07-31T04:26:05;15.60;99.90
37240;DHT22;23130;48.760;9.178;2023-07-31T04:28:32;15.70;99.90
37240;DHT22;23130;48.760;9.178;2023-07-31T04:30:57;15.70;99.90
37240;DHT22;23130;48.760;9.178;2023-07-31T04:33:23;15.70;99.90
37240;DHT22;23130;48.760;9.178;2023-07-31T04:35:51;15.80;99.90
37240;DHT22;23130;48.760;9.178;2023-07-31T04:38:18;15.90;99.90
37240;DHT22;23130;48.760;9.178;2023-07-31T04:40:44;16.00;99.90
37240;DHT22;23130;48.760;9.178;2023-07-31T04:43:10;16.10;99.90
37240;DHT22;23130;48.760;9.178;2023-07-31T04:45:35;16.20;99.90
37240;DHT22;23130;48.760;9.178;2023-07-31T04:48:02;16.20;99.90
37240;DHT22;23130;48.760;9.178;2023-07-31T04:50:28;16.30;99.90
37240;DHT22;23130;48.760;9.178;2023-07-31T04:52:56;16.40;99.90
37240;DHT22;23130;48.760;9.178;2023-07-31T04:55:22;16.50;99.90
37240;DHT22;23130;48.760;9.178;2023-07-31T04:57:50;16.60;99.90
37240;DHT22;23130;48.760;9.178;2023-07-31T05:00:16;16.70;99.90
37240;DHT22;23130;48.760;9.178;2023-07-31T05:02:42;16.80;99.90
37240;DHT22;23130;48.760;9.178;2023-07-31T05:05:07;16.80;99.90
37240;DHT22;23130;48.760;9.178;2023-07-31T05:07:33;16.70;99.90
37240;DHT22;23130;48.760;9.178;2023-07-31T05:09:59;16.70;99.90
37240;DHT22;23130;48.760;9.178;2023-07-31T05:12:25;16.60;99.90
37240;DHT22;23130;48.760;9.178;2023-07-31T05:14:52;16.60;99.90
37240;DHT22;23130;48.760;9.178;2023-07-31T05:17:18;16.70;99.90
37240;DHT22;23130;48.760;9.178;2023-07-31T05:19:44;16.70;99.90
37240;DHT22;23130;48.760;9.178;2023-07-31T05:22:09;16.80;99.90
37240;DHT22;23130;48.760;9.178;2023-07-31T05:24:37;16.80;99.90
37240;DHT22;23130;48.760;9.178;2023-07-31T05:27:02;16.90;99.90
37240;DHT22;23130;48.760;9.178;2023-07-31T05:29:28;17.10;99.90
37240;DHT22;23130;48.760;9.178;2023-07-31T05:31:53;17.10;99.90
37240;DHT22;23130;48.760;9.178;2023-07-31T05:34:19;17.30;99.90
37240;DHT22;23130;48.760;9.178;2023-07-31T05:36:44;17.50;99.90
37240;DHT22;23130;48.760;9.178;2023-07-31T05:39:10;18.00;99.90
37240;DHT22;23130;48.760;9.178;2023-07-31T05:41:36;18.70;99.90
37240;DHT22;23130;48.760;9.178;2023-07-31T05:44:01;19.20;99.90
37240;DHT22;23130;48.760;9.178;2023-07-31T05:46:28;19.90;99.90
37240;DHT22;23130;48.760;9.178;2023-07-31T05:48:54;20.40;99.90
37240;DHT22;23130;48.760;9.178;2023-07-31T05:51:20;20.70;99.90
37240;DHT22;23130;48.760;9.178;2023-07-31T05:53:46;20.90;99.90
37240;DHT22;23130;48.760;9.178;2023-07-31T05:56:13;21.20;99.90
37240;DHT22;23130;48.760;9.178;2023-07-31T05:58:41;21.60;99.90
37240;DHT22;23130;48.760;9.178;2023-07-31T06:01:08;21.60;99.90
37240;DHT22;23130;48.760;9.178;2023-07-31T06:03:33;21.70;99.90
37240;DHT22;23130;48.760;9.178;2023-07-31T06:06:00;22.50;99.90
37240;DHT22;23130;48.760;9.178;2023-07-31T06:08:27;23.40;99.90
37240;DHT22;23130;48.760;9.178;2023-07-31T06:10:53;24.00;99.90
37240;DHT22;23130;48.760;9.178;2023-07-31T06:13:18;24.70;99.90
37240;DHT22;23130;48.760;9.178;2023-07-31T06:15:44;25.30;99.90
37240;DHT22;23130;48.760;9.178;2023-07-31T06:18:09;26.20;99.90
37240;DHT22;23130;48.760;9.178;2023-07-31T06:20:35;26.60;98.50
37240;DHT22;23130;48.760;9.178;2023-07-31T06:23:01;26.20;98.10
37240;DHT22;23130;48.760;9.178;2023-07-31T06:25:28;26.10;98.10
37240;DHT22;23130;48.760;9.178;2023-07-31T06:27:53;25.60;97.70
37240;DHT22;23130;48.760;9.178;2023-07-31T06:30:19;25.40;98.20
37240;DHT22;23130;48.760;9.178;2023-07-31T06:32:44;25.10;98.80
37240;DHT22;23130;48.760;9.178;2023-07-31T06:35:10;25.50;97.90
37240;DHT22;23130;48.760;9.178;2023-07-31T06:37:37;26.00;97.70
37240;DHT22;23130;48.760;9.178;2023-07-31T06:40:07;26.10;97.00
37240;DHT22;23130;48.760;9.178;2023-07-31T06:42:34;25.40;97.40
37240;DHT22;23130;48.760;9.178;2023-07-31T06:45:01;24.70;98.10
37240;DHT22;23130;48.760;9.178;2023-07-31T06:47:26;23.90;99.10
37240;DHT22;23130;48.760;9.178;2023-07-31T06:49:53;23.50;99.90
37240;DHT22;23130;48.760;9.178;2023-07-31T06:52:18;23.80;99.90
37240;DHT22;23130;48.760;9.178;2023-07-31T06:55:04;24.10;99.60
37240;DHT22;23130;48.760;9.178;2023-07-31T06:57:31;24.50;99.10
37240;DHT22;23130;48.760;9.178;2023-07-31T06:59:57;24.90;98.70
37240;DHT22;23130;48.760;9.178;2023-07-31T07:02:22;25.40;98.10
37240;DHT22;23130;48.760;9.178;2023-07-31T07:04:49;25.30;98.10
37240;DHT22;23130;48.760;9.178;2023-07-31T07:07:15;25.50;97.90
37240;DHT22;23130;48.760;9.178;2023-07-31T07:09:40;25.60;98.10
37240;DHT22;23130;48.760;9.178;2023-07-31T07:12:06;25.30;98.50
37240;DHT22;23130;48.760;9.178;2023-07-31T07:14:32;25.60;97.70
37240;DHT22;23130;48.760;9.178;2023-07-31T07:16:58;25.90;96.90
37240;DHT22;23130;48.760;9.178;2023-07-31T07:19:25;26.00;97.00
37240;DHT22;23130;48.760;9.178;2023-07-31T07:21:51;26.40;96.70
37240;DHT22;23130;48.760;9.178;2023-07-31T07:24:16;26.60;96.60
37240;DHT22;23130;48.760;9.178;2023-07-31T07:26:43;26.90;95.90
37240;DHT22;23130;48.760;9.178;2023-07-31T07:29:08;27.90;95.90
37240;DHT22;23130;48.760;9.178;2023-07-31T07:31:36;27.80;95.50
37240;DHT22;23130;48.760;9.178;2023-07-31T07:34:02;27.60;94.60
37240;DHT22;23130;48.760;9.178;2023-07-31T07:36:28;27.10;95.40
37240;DHT22;23130;48.760;9.178;2023-07-31T07:38:54;26.30;95.20
37240;DHT22;23130;48.760;9.178;2023-07-31T07:41:21;25.30;95.80
37240;DHT22;23130;48.760;9.178;2023-07-31T07:43:46;24.50;97.70
37240;DHT22;23130;48.760;9.178;2023-07-31T07:46:12;24.20;97.90
37240;DHT22;23130;48.760;9.178;2023-07-31T07:48:39;24.30;98.30
37240;DHT22;23130;48.760;9.178;2023-07-31T07:51:05;24.70;98.30
37240;DHT22;23130;48.760;9.178;2023-07-31T07:53:31;24.90;97.30
37240;DHT22;23130;48.760;9.178;2023-07-31T07:55:59;24.70;98.10
37240;DHT22;23130;48.760;9.178;2023-07-31T07:58:25;24.80;97.70
37240;DHT22;23130;48.760;9.178;2023-07-31T08:00:51;25.00;97.70
37240;DHT22;23130;48.760;9.178;2023-07-31T08:03:16;25.10;96.90
37240;DHT22;23130;48.760;9.178;2023-07-31T08:05:43;25.20;96.90
37240;DHT22;23130;48.760;9.178;2023-07-31T08:08:14;25.60;96.20
37240;DHT22;23130;48.760;9.178;2023-07-31T08:10:39;25.60;96.20
37240;DHT22;23130;48.760;9.178;2023-07-31T08:13:06;25.70;97.00
37240;DHT22;23130;48.760;9.178;2023-07-31T08:15:32;25.70;96.00
37240;DHT22;23130;48.760;9.178;2023-07-31T08:17:58;25.30;96.10
37240;DHT22;23130;48.760;9.178;2023-07-31T08:20:24;25.60;96.60
37240;DHT22;23130;48.760;9.178;2023-07-31T08:22:51;25.90;95.70
37240;DHT22;23130;48.760;9.178;2023-07-31T08:25:18;25.90;95.40
37240;DHT22;23130;48.760;9.178;2023-07-31T08:27:44;25.90;95.60
37240;DHT22;23130;48.760;9.178;2023-07-31T08:30:11;25.40;95.90
37240;DHT22;23130;48.760;9.178;2023-07-31T08:32:39;25.00;97.10
37240;DHT22;23130;48.760;9.178;2023-07-31T08:35:04;24.90;97.20
37240;DHT22;23130;48.760;9.178;2023-07-31T08:37:30;24.60;96.80
37240;DHT22;23130;48.760;9.178;2023-07-31T08:39:55;24.40;97.70
37240;DHT22;23130;48.760;9.178;2023-07-31T08:42:21;24.40;98.20
37240;DHT22;23130;48.760;9.178;2023-07-31T08:44:47;24.30;97.40
37240;DHT22;23130;48.760;9.178;2023-07-31T08:47:14;24.60;97.20
37240;DHT22;23130;48.760;9.178;2023-07-31T08:49:42;24.70;97.90
37240;DHT22;23130;48.760;9.178;2023-07-31T08:52:08;24.90;97.10
37240;DHT22;23130;48.760;9.178;2023-07-31T08:54:35;24.80;98.60
37240;DHT22;23130;48.760;9.178;2023-07-31T08:57:01;25.00;98.60
37240;DHT22;23130;48.760;9.178;2023-07-31T08:59:29;24.90;97.10
37240;DHT22;23130;48.760;9.178;2023-07-31T09:01:57;24.80;97.50
37240;DHT22;23130;48.760;9.178;2023-07-31T09:04:24;24.80;97.10
37240;DHT22;23130;48.760;9.178;2023-07-31T09:06:53;24.40;97.00
37240;DHT22;23130;48.760;9.178;2023-07-31T09:09:22;24.50;97.40
37240;DHT22;23130;48.760;9.178;2023-07-31T09:11:49;24.60;97.50
37240;DHT22;23130;48.760;9.178;2023-07-31T09:14:15;24.80;99.20
37240;DHT22;23130;48.760;9.178;2023-07-31T09:16:54;24.90;97.40
37240;DHT22;23130;48.760;9.178;2023-07-31T09:19:33;24.50;97.50
37240;DHT22;23130;48.760;9.178;2023-07-31T09:21:59;24.40;98.10
37240;DHT22;23130;48.760;9.178;2023-07-31T09:24:29;24.50;97.30
37240;DHT22;23130;48.760;9.178;2023-07-31T09:26:56;24.60;98.00
37240;DHT22;23130;48.760;9.178;2023-07-31T09:29:22;24.60;97.70
37240;DHT22;23130;48.760;9.178;2023-07-31T09:31:50;24.40;98.00
37240;DHT22;23130;48.760;9.178;2023-07-31T09:34:16;24.20;98.60
37240;DHT22;23130;48.760;9.178;2023-07-31T09:36:50;24.40;98.00
37240;DHT22;23130;48.760;9.178;2023-07-31T09:39:17;24.30;99.40
37240;DHT22;23130;48.760;9.178;2023-07-31T09:41:47;24.00;98.20
37240;DHT22;23130;48.760;9.178;2023-07-31T09:44:13;23.80;98.80
37240;DHT22;23130;48.760;9.178;2023-07-31T09:46:39;23.70;99.10
37240;DHT22;23130;48.760;9.178;2023-07-31T09:49:11;23.80;99.40
37240;DHT22;23130;48.760;9.178;2023-07-31T09:51:39;23.80;99.50
37240;DHT22;23130;48.760;9.178;2023-07-31T09:54:12;24.20;99.50
37240;DHT22;23130;48.760;9.178;2023-07-31T09:56:44;24.30;99.30
37240;DHT22;23130;48.760;9.178;2023-07-31T09:59:16;24.50;99.00
37240;DHT22;23130;48.760;9.178;2023-07-31T10:01:43;25.00;99.10
37240;DHT22;23130;48.760;9.178;2023-07-31T10:04:10;25.30;98.60
37240;DHT22;23130;48.760;9.178;2023-07-31T10:06:36;25.40;98.00
37240;DHT22;23130;48.760;9.178;2023-07-31T10:09:07;25.40;98.20
37240;DHT22;23130;48.760;9.178;2023-07-31T10:11:59;25.60;97.60
37240;DHT22;23130;48.760;9.178;2023-07-31T10:14:24;25.30;97.40
37240;DHT22;23130;48.760;9.178;2023-07-31T10:16:49;25.20;97.50
37240;DHT22;23130;48.760;9.178;2023-07-31T10:19:16;25.20;97.50
37240;DHT22;23130;48.760;9.178;2023-07-31T10:21:42;25.10;97.40
37240;DHT22;23130;48.760;9.178;2023-07-31T10:24:11;25.10;97.50
37240;DHT22;23130;48.760;9.178;2023-07-31T10:26:38;25.10;97.60
37240;DHT22;23130;48.760;9.178;2023-07-31T10:29:05;25.20;97.70
37240;DHT22;23130;48.760;9.178;2023-07-31T10:31:32;25.30;97.80
37240;DHT22;23130;48.760;9.178;2023-07-31T10:33:58;25.30;97.90
37240;DHT22;23130;48.760;9.178;2023-07-31T10:36:25;25.40;97.40
37240;DHT22;23130;48.760;9.178;2023-07-31T10:38:51;25.40;97.20
37240;DHT22;23130;48.760;9.178;2023-07-31T10:41:17;25.20;97.10
37240;DHT22;23130;48.760;9.178;2023-07-31T10:43:43;25.60;98.20
37240;DHT22;23130;48.760;9.178;2023-07-31T10:46:12;26.00;97.10
37240;DHT22;23130;48.760;9.178;2023-07-31T10:48:40;25.90;96.60
37240;DHT22;23130;48.760;9.178;2023-07-31T10:51:11;26.00;97.30
37240;DHT22;23130;48.760;9.178;2023-07-31T10:53:41;25.90;97.00
37240;DHT22;23130;48.760;9.178;2023-07-31T10:56:07;25.80;97.00
37240;DHT22;23130;48.760;9.178;2023-07-31T10:58:34;25.80;97.40
37240;DHT22;23130;48.760;9.178;2023-07-31T11:01:03;25.70;96.30
37240;DHT22;23130;48.760;9.178;2023-07-31T11:03:46;25.50;96.20
37240;DHT22;23130;48.760;9.178;2023-07-31T11:06:14;25.10;96.80
37240;DHT22;23130;48.760;9.178;2023-07-31T11:08:46;24.90;96.70
37240;DHT22;23130;48.760;9.178;2023-07-31T11:11:15;24.80;98.10
37240;DHT22;23130;48.760;9.178;2023-07-31T11:16:09;24.40;97.90
37240;DHT22;23130;48.760;9.178;2023-07-31T11:18:37;24.40;98.30
37240;DHT22;23130;48.760;9.178;2023-07-31T11:21:03;24.40;97.40
37240;DHT22;23130;48.760;9.178;2023-07-31T11:23:29;24.40;99.00
37240;DHT22;23130;48.760;9.178;2023-07-31T11:25:59;24.50;98.40
37240;DHT22;23130;48.760;9.178;2023-07-31T11:28:25;24.50;98.40
37240;DHT22;23130;48.760;9.178;2023-07-31T11:30:51;24.60;98.10
37240;DHT22;23130;48.760;9.178;2023-07-31T11:33:17;24.50;98.40
37240;DHT22;23130;48.760;9.178;2023-07-31T11:35:47;24.50;98.50
37240;DHT22;23130;48.760;9.178;2023-07-31T11:38:35;24.20;97.90
37240;DHT22;23130;48.760;9.178;2023-07-31T11:41:02;24.20;98.60
37240;DHT22;23130;48.760;9.178;2023-07-31T11:43:29;24.30;99.50
37240;DHT22;23130;48.760;9.178;2023-07-31T11:45:56;24.50;98.50
37240;DHT22;23130;48.760;9.178;2023-07-31T11:48:26;24.60;99.00
37240;DHT22;23130;48.760;9.178;2023-07-31T11:50:55;25.00;98.10
37240;DHT22;23130;48.760;9.178;2023-07-31T11:53:33;25.40;99.30
37240;DHT22;23130;48.760;9.178;2023-07-31T11:56:01;25.60;97.90
37240;DHT22;23130;48.760;9.178;2023-07-31T11:58:32;25.90;97.60
37240;DHT22;23130;48.760;9.178;2023-07-31T12:00:59;25.80;97.40
37240;DHT22;23130;48.760;9.178;2023-07-31T12:03:25;25.80;97.50
37240;DHT22;23130;48.760;9.178;2023-07-31T12:05:53;25.80;97.30
37240;DHT22;23130;48.760;9.178;2023-07-31T12:08:24;25.80;97.40
37240;DHT22;23130;48.760;9.178;2023-07-31T12:10:52;25.70;97.60
37240;DHT22;23130;48.760;9.178;2023-07-31T12:13:25;26.00;97.10
37240;DHT22;23130;48.760;9.178;2023-07-31T12:15:56;25.70;96.90
37240;DHT22;23130;48.760;9.178;2023-07-31T12:18:24;25.70;98.50
37240;DHT22;23130;48.760;9.178;2023-07-31T12:21:01;25.60;98.10
37240;DHT22;23130;48.760;9.178;2023-07-31T12:23:29;25.50;98.50
37240;DHT22;23130;48.760;9.178;2023-07-31T12:26:05;25.40;97.50
37240;DHT22;23130;48.760;9.178;2023-07-31T12:28:44;25.30;97.40
37240;DHT22;23130;48.760;9.178;2023-07-31T12:31:12;25.20;98.70
37240;DHT22;23130;48.760;9.178;2023-07-31T12:33:39;25.10;98.60
37240;DHT22;23130;48.760;9.178;2023-07-31T12:36:10;25.00;98.60
37240;DHT22;23130;48.760;9.178;2023-07-31T12:38:36;24.80;98.00
37240;DHT22;23130;48.760;9.178;2023-07-31T12:41:02;24.60;98.10
37240;DHT22;23130;48.760;9.178;2023-07-31T12:43:27;24.40;98.80
37240;DHT22;23130;48.760;9.178;2023-07-31T12:45:54;24.10;98.10
37240;DHT22;23130;48.760;9.178;2023-07-31T12:48:22;23.90;98.70
37240;DHT22;23130;48.760;9.178;2023-07-31T12:50:47;23.90;98.50
37240;DHT22;23130;48.760;9.178;2023-07-31T12:53:15;23.90;98.80
37240;DHT22;23130;48.760;9.178;2023-07-31T12:55:41;23.80;98.90
37240;DHT22;23130;48.760;9.178;2023-07-31T12:58:07;23.80;99.00
37240;DHT22;23130;48.760;9.178;2023-07-31T13:00:33;23.80;99.60
37240;DHT22;23130;48.760;9.178;2023-07-31T13:03:01;23.90;99.50
37240;DHT22;23130;48.760;9.178;2023-07-31T13:05:27;24.00;99.60
37240;DHT22;23130;48.760;9.178;2023-07-31T13:07:54;24.20;99.30
37240;DHT22;23130;48.760;9.178;2023-07-31T13:10:22;24.30;98.90
37240;DHT22;23130;48.760;9.178;2023-07-31T13:12:49;24.40;99.60
37240;DHT22;23130;48.760;9.178;2023-07-31T13:15:15;24.30;99.90
37240;DHT22;23130;48.760;9.178;2023-07-31T13:17:40;24.40;99.00
37240;DHT22;23130;48.760;9.178;2023-07-31T13:20:06;24.30;99.30
37240;DHT22;23130;48.760;9.178;2023-07-31T13:22:32;24.30;98.70
37240;DHT22;23130;48.760;9.178;2023-07-31T13:24:59;24.40;99.30
37240;DHT22;23130;48.760;9.178;2023-07-31T13:27:25;24.60;99.40
37240;DHT22;23130;48.760;9.178;2023-07-31T13:29:51;24.80;99.30
37240;DHT22;23130;48.760;9.178;2023-07-31T13:32:18;25.10;99.20
37240;DHT22;23130;48.760;9.178;2023-07-31T13:34:45;25.60;98.60
37240;DHT22;23130;48.760;9.178;2023-07-31T13:37:11;26.00;98.20
37240;DHT22;23130;48.760;9.178;2023-07-31T13:39:37;26.50;98.50
37240;DHT22;23130;48.760;9.178;2023-07-31T13:42:03;26.90;96.80
37240;DHT22;23130;48.760;9.178;2023-07-31T13:44:32;26.80;96.50
37240;DHT22;23130;48.760;9.178;2023-07-31T13:46:58;26.50;96.70
37240;DHT22;23130;48.760;9.178;2023-07-31T13:49:24;26.50;97.20
37240;DHT22;23130;48.760;9.178;2023-07-31T13:51:49;26.60;97.10
37240;DHT22;23130;48.760;9.178;2023-07-31T13:54:17;26.60;97.00
37240;DHT22;23130;48.760;9.178;2023-07-31T13:56:43;26.70;97.40
37240;DHT22;23130;48.760;9.178;2023-07-31T13:59:10;26.60;96.80
37240;DHT22;23130;48.760;9.178;2023-07-31T14:01:35;26.50;96.90
37240;DHT22;23130;48.760;9.178;2023-07-31T14:04:02;26.30;96.90
37240;DHT22;23130;48.760;9.178;2023-07-31T14:06:29;26.20;97.30
37240;DHT22;23130;48.760;9.178;2023-07-31T14:08:54;26.10;97.00
37240;DHT22;23130;48.760;9.178;2023-07-31T14:11:21;25.90;98.10
37240;DHT22;23130;48.760;9.178;2023-07-31T14:13:47;25.80;97.80
37240;DHT22;23130;48.760;9.178;2023-07-31T14:16:12;25.70;98.20
37240;DHT22;23130;48.760;9.178;2023-07-31T14:18:38;25.60;97.40
37240;DHT22;23130;48.760;9.178;2023-07-31T14:21:03;25.60;98.50
37240;DHT22;23130;48.760;9.178;2023-07-31T14:23:30;25.60;98.40
37240;DHT22;23130;48.760;9.178;2023-07-31T14:25:58;25.60;98.90
37240;DHT22;23130;48.760;9.178;2023-07-31T14:28:23;25.70;97.80
37240;DHT22;23130;48.760;9.178;2023-07-31T14:30:50;25.80;98.70
37240;DHT22;23130;48.760;9.178;2023-07-31T14:33:17;25.80;98.60
37240;DHT22;23130;48.760;9.178;2023-07-31T14:35:43;25.80;98.30
37240;DHT22;23130;48.760;9.178;2023-07-31T14:38:08;25.70;98.30
37240;DHT22;23130;48.760;9.178;2023-07-31T14:40:34;25.50;98.30
37240;DHT22;23130;48.760;9.178;2023-07-31T14:43:00;25.40;98.40
37240;DHT22;23130;48.760;9.178;2023-07-31T14:45:25;25.40;98.50
37240;DHT22;23130;48.760;9.178;2023-07-31T14:47:52;25.60;98.90
37240;DHT22;23130;48.760;9.178;2023-07-31T14:50:17;25.80;99.00
37240;DHT22;23130;48.760;9.178;2023-07-31T14:52:46;25.90;98.80
37240;DHT22;23130;48.760;9.178;2023-07-31T14:55:12;26.00;98.00
37240;DHT22;23130;48.760;9.178;2023-07-31T14:57:37;26.00;98.20
37240;DHT22;23130;48.760;9.178;2023-07-31T15:00:03;25.80;98.10
37240;DHT22;23130;48.760;9.178;2023-07-31T15:02:36;25.80;97.30
37240;DHT22;23130;48.760;9.178;2023-07-31T15:05:02;25.80;97.50
37240;DHT22;23130;48.760;9.178;2023-07-31T15:07:27;26.00;97.80
37240;DHT22;23130;48.760;9.178;2023-07-31T15:09:53;25.90;97.10
37240;DHT22;23130;48.760;9.178;2023-07-31T15:12:18;25.80;97.00
37240;DHT22;23130;48.760;9.178;2023-07-31T15:14:44;25.70;96.70
37240;DHT22;23130;48.760;9.178;2023-07-31T15:17:09;25.50;96.70
37240;DHT22;23130;48.760;9.178;2023-07-31T15:19:35;25.50;97.40
37240;DHT22;23130;48.760;9.178;2023-07-31T15:22:02;25.60;97.50
37240;DHT22;23130;48.760;9.178;2023-07-31T15:24:28;25.40;97.20
37240;DHT22;23130;48.760;9.178;2023-07-31T15:26:53;25.30;98.30
37240;DHT22;23130;48.760;9.178;2023-07-31T15:29:19;25.20;98.20
37240;DHT22;23130;48.760;9.178;2023-07-31T15:31:45;25.30;97.20
37240;DHT22;23130;48.760;9.178;2023-07-31T15:34:11;25.40;97.40
37240;DHT22;23130;48.760;9.178;2023-07-31T15:36:38;25.50;97.80
37240;DHT22;23130;48.760;9.178;2023-07-31T15:39:04;25.70;98.10